Algowood — VCTD — position and weather

sailwx.info

Track history (hours):
 
Tides and Currents Weather Stations Pressure Air Temp Water Temp Dewpoint Dewpoint Depression Visibility Wind Speed Wind Dir Waves Ship Positions

Algowood

Last reported at 2015-May-27 13:33 UTC. Time now 2015-May-29 04:20 UTC.
Position N 46°20' W 072°33'.

Length 223 m; draft 8.1 m.

Type: Cargo ship. MMSI: 316001802.

Date/timePositionNaut miles runAvg speedWind from/ knotsBaromVisibWave heightAir tempDewpointWater temp
2015-May-27 13:33N 46°20' W 072°33'0 0.0
2015-May-27 12:33N 46°20' W 072°33'0 0.0
2015-May-27 11:33N 46°20' W 072°33'0 0.0
2015-May-27 10:33N 46°20' W 072°33'0 0.0
2015-May-27 09:33N 46°20' W 072°33'0 0.0
2015-May-27 08:33N 46°20' W 072°33'0 0.0
2015-May-27 07:33N 46°20' W 072°33'0 0.0
2015-May-27 06:33N 46°20' W 072°33'0 0.0
2015-May-27 05:33N 46°20' W 072°33'0 0.0
2015-May-27 04:33N 46°20' W 072°33'0 0.0
2015-May-27 03:33N 46°20' W 072°33'0 0.0
2015-May-27 02:33N 46°20' W 072°33'0 0.0
2015-May-27 01:33N 46°20' W 072°33'0 0.0
2015-May-27 00:33N 46°20' W 072°33'0 0.0
2015-May-26 23:33N 46°20' W 072°33'0 0.0
2015-May-26 22:33N 46°20' W 072°33'0 0.0
2015-May-26 21:33N 46°20' W 072°33'0 0.0
2015-May-26 20:33N 46°20' W 072°33'0 0.0
2015-May-26 19:33N 46°20' W 072°33'0 0.0
2015-May-26 18:33N 46°20' W 072°33'0 0.0
2015-May-26 17:33N 46°20' W 072°33'0 0.0
2015-May-26 16:33N 46°20' W 072°33'0 0.0
2015-May-26 15:33N 46°20' W 072°33'0 0.0
2015-May-26 14:33N 46°20' W 072°33'0 0.0
2015-May-26 13:33N 46°20' W 072°33'0 0.0
2015-May-26 12:33N 46°20' W 072°33'0 0.0
2015-May-26 11:33N 46°20' W 072°33'0 0.0
2015-May-26 10:33N 46°20' W 072°33'0 0.0
2015-May-26 09:33N 46°20' W 072°33'0 0.0
2015-May-26 08:33N 46°20' W 072°33'0 0.0
2015-May-26 07:33N 46°20' W 072°33'0 0.0
2015-May-26 06:33N 46°20' W 072°33'1 0.6
2015-May-26 05:33N 46°19' W 072°33'1010.1
2015-May-26 04:33N 46°14' W 072°46'55 9.1
2015-May-25 22:29N 45°29' W 073°31'4 4.5
2015-May-25 21:34N 45°25' W 073°32'2 1.7
2015-May-25 20:33N 45°24' W 073°34'3 3.2
2015-May-25 19:33N 45°24' W 073°39'7 6.7
2015-May-25 18:33N 45°23' W 073°48'7 6.6
2015-May-25 17:33N 45°19' W 073°55'3 1.6
2015-May-25 15:33N 45°16' W 073°57'8 7.8
2015-May-25 14:32N 45°14' W 074°08'119 8.3
2015-May-25 00:06N 44°05' W 076°25'712.4
2015-May-24 23:34N 44°10' W 076°19'6 6.3
2015-May-24 22:34N 44°05' W 076°25'161 5.5
2015-May-23 17:11N 42°40' W 079°33'711.4
2015-May-23 16:33N 42°36' W 079°41'1111.4
2015-May-23 15:33N 42°29' W 079°53'1111.3
2015-May-23 14:33N 42°24' W 080°07'251 7.0
2015-May-22 02:27N 45°45' W 083°38'1511.8
2015-May-22 01:12N 45°56' W 083°52'810.4
2015-May-22 00:28N 46°03' W 083°56'54 5.0
2015-May-21 13:33N 46°42' W 084°50'1111.1
2015-May-21 12:33N 46°50' W 085°01'1111.4
2015-May-21 11:33N 46°56' W 085°16'1111.4
2015-May-21 10:34N 47°01' W 085°30'1111.4
2015-May-21 09:34N 47°07' W 085°45'  
Track history (hours):
 
Tides and Currents Weather Stations Pressure Air Temp Water Temp Dewpoint Dewpoint Depression Visibility Wind Speed Wind Dir Waves Ship Positions

Algowood

Last reported at 2015-May-27 13:33 UTC. Time now 2015-May-29 04:20 UTC.
Position N 46°20' W 072°33'.

Length 223 m; draft 8.1 m.

Type: Cargo ship. MMSI: 316001802.

Date/timePositionNaut miles runAvg speedWind from/ knotsBaromVisibWave heightAir tempDewpointWater temp
2015-May-27 13:33N 46°20' W 072°33'0 0.0
2015-May-27 12:33N 46°20' W 072°33'0 0.0
2015-May-27 11:33N 46°20' W 072°33'0 0.0
2015-May-27 10:33N 46°20' W 072°33'0 0.0
2015-May-27 09:33N 46°20' W 072°33'0 0.0
2015-May-27 08:33N 46°20' W 072°33'0 0.0
2015-May-27 07:33N 46°20' W 072°33'0 0.0
2015-May-27 06:33N 46°20' W 072°33'0 0.0
2015-May-27 05:33N 46°20' W 072°33'0 0.0
2015-May-27 04:33N 46°20' W 072°33'0 0.0
2015-May-27 03:33N 46°20' W 072°33'0 0.0
2015-May-27 02:33N 46°20' W 072°33'0 0.0
2015-May-27 01:33N 46°20' W 072°33'0 0.0
2015-May-27 00:33N 46°20' W 072°33'0 0.0
2015-May-26 23:33N 46°20' W 072°33'0 0.0
2015-May-26 22:33N 46°20' W 072°33'0 0.0
2015-May-26 21:33N 46°20' W 072°33'0 0.0
2015-May-26 20:33N 46°20' W 072°33'0 0.0
2015-May-26 19:33N 46°20' W 072°33'0 0.0
2015-May-26 18:33N 46°20' W 072°33'0 0.0
2015-May-26 17:33N 46°20' W 072°33'0 0.0
2015-May-26 16:33N 46°20' W 072°33'0 0.0
2015-May-26 15:33N 46°20' W 072°33'0 0.0
2015-May-26 14:33N 46°20' W 072°33'0 0.0
2015-May-26 13:33N 46°20' W 072°33'0 0.0
2015-May-26 12:33N 46°20' W 072°33'0 0.0
2015-May-26 11:33N 46°20' W 072°33'0 0.0
2015-May-26 10:33N 46°20' W 072°33'0 0.0
2015-May-26 09:33N 46°20' W 072°33'0 0.0
2015-May-26 08:33N 46°20' W 072°33'0 0.0
2015-May-26 07:33N 46°20' W 072°33'0 0.0
2015-May-26 06:33N 46°20' W 072°33'1 0.6
2015-May-26 05:33N 46°19' W 072°33'1010.1
2015-May-26 04:33N 46°14' W 072°46'55 9.1
2015-May-25 22:29N 45°29' W 073°31'4 4.5
2015-May-25 21:34N 45°25' W 073°32'2 1.7
2015-May-25 20:33N 45°24' W 073°34'3 3.2
2015-May-25 19:33N 45°24' W 073°39'7 6.7
2015-May-25 18:33N 45°23' W 073°48'7 6.6
2015-May-25 17:33N 45°19' W 073°55'3 1.6
2015-May-25 15:33N 45°16' W 073°57'8 7.8
2015-May-25 14:32N 45°14' W 074°08'119 8.3
2015-May-25 00:06N 44°05' W 076°25'712.4
2015-May-24 23:34N 44°10' W 076°19'6 6.3
2015-May-24 22:34N 44°05' W 076°25'161 5.5
2015-May-23 17:11N 42°40' W 079°33'711.4
2015-May-23 16:33N 42°36' W 079°41'1111.4
2015-May-23 15:33N 42°29' W 079°53'1111.3
2015-May-23 14:33N 42°24' W 080°07'251 7.0
2015-May-22 02:27N 45°45' W 083°38'1511.8
2015-May-22 01:12N 45°56' W 083°52'810.4
2015-May-22 00:28N 46°03' W 083°56'54 5.0
2015-May-21 13:33N 46°42' W 084°50'1111.1
2015-May-21 12:33N 46°50' W 085°01'1111.4
2015-May-21 11:33N 46°56' W 085°16'1111.4
2015-May-21 10:34N 47°01' W 085°30'1111.4
2015-May-21 09:34N 47°07' W 085°45'  

Dump ship's entire track history